Time;durP1;ratioP1;P1;durP2;ratioP2;P2;SDS_P1;SDS_P2;PMS_P1;PMS_P2;Temp;Humidity;BMP_temperature;BMP_pressure;BME280_temperature;BME280_humidity;BME280_pressure;Samples;Min_cycle;Max_cycle;Signal;HPM_P1;HPM_P2
2022/06/06 00:00:50;;;;;;;6.70;5.63;;;18.70;99.90;;;;;;5055999;28;20027;-68
2022/06/06 00:03:18;;;;;;;5.72;5.22;;;18.70;99.90;;;;;;5054537;28;20044;-69
2022/06/06 00:05:47;;;;;;;5.53;5.03;;;18.70;99.90;;;;;;5055621;28;20078;-69
2022/06/06 00:08:13;;;;;;;5.93;5.32;;;18.70;99.90;;;;;;5054577;28;20037;-69
2022/06/06 00:10:40;;;;;;;6.80;6.00;;;18.70;99.90;;;;;;5055730;28;20107;-69
2022/06/06 00:13:07;;;;;;;6.10;5.50;;;18.70;99.90;;;;;;5037860;28;20061;-69
2022/06/06 00:15:34;;;;;;;9.38;5.97;;;18.60;99.90;;;;;;5056151;28;20032;-69
2022/06/06 00:17:59;;;;;;;9.73;6.95;;;18.60;99.90;;;;;;5055644;28;20390;-68
2022/06/06 00:20:25;;;;;;;6.60;5.97;;;18.60;99.90;;;;;;5055836;28;20025;-70
2022/06/06 00:22:51;;;;;;;6.40;5.80;;;18.60;99.90;;;;;;5056257;28;20025;-71
2022/06/06 00:25:16;;;;;;;9.20;6.50;;;18.70;99.90;;;;;;5056474;28;20085;-70
2022/06/06 00:27:42;;;;;;;9.88;7.10;;;18.70;99.90;;;;;;5056002;28;20109;-69
2022/06/06 00:30:08;;;;;;;6.65;5.97;;;18.70;99.90;;;;;;5055980;28;20067;-69
2022/06/06 00:35:20;;;;;;;7.68;6.43;;;18.70;99.90;;;;;;5055139;28;20071;-70
2022/06/06 00:37:47;;;;;;;7.95;6.90;;;18.60;99.90;;;;;;5055300;28;20013;-70
2022/06/06 00:40:15;;;;;;;7.10;6.38;;;18.60;99.90;;;;;;5037192;28;20031;-69
2022/06/06 00:42:42;;;;;;;6.85;6.10;;;18.50;99.90;;;;;;5055303;28;20032;-69
2022/06/06 00:45:29;;;;;;;7.00;6.30;;;18.50;99.90;;;;;;5041195;28;20506;-70
2022/06/06 00:48:07;;;;;;;7.10;6.45;;;18.50;99.90;;;;;;5035132;28;20064;-69
2022/06/06 00:51:06;;;;;;;5.72;5.22;;;18.40;99.90;;;;;;5034957;28;20032;-69
2022/06/06 00:53:52;;;;;;;7.28;5.75;;;18.40;99.90;;;;;;5033893;28;20060;-69
2022/06/06 00:56:33;;;;;;;6.15;5.28;;;18.30;99.90;;;;;;5032070;28;20065;-69
2022/06/06 00:59:06;;;;;;;5.32;4.82;;;18.30;99.90;;;;;;5014882;28;20108;-70
2022/06/06 01:01:35;;;;;;;5.25;4.75;;;18.20;99.90;;;;;;5036048;28;20022;-69
2022/06/06 01:04:03;;;;;;;4.18;3.78;;;18.20;99.90;;;;;;5036082;28;20021;-70
2022/06/06 01:06:32;;;;;;;4.22;3.83;;;18.20;99.90;;;;;;5034968;28;20025;-70
2022/06/06 01:08:58;;;;;;;3.47;3.17;;;18.20;99.90;;;;;;5037812;28;20326;-70
2022/06/06 01:11:25;;;;;;;3.30;2.97;;;18.10;99.90;;;;;;5017770;28;20025;-69
2022/06/06 01:13:52;;;;;;;2.97;2.65;;;18.00;99.90;;;;;;5034544;28;20037;-70
2022/06/06 01:16:27;;;;;;;2.40;2.20;;;18.00;99.90;;;;;;5032687;28;20083;-70
2022/06/06 01:19:07;;;;;;;2.58;2.38;;;18.00;99.90;;;;;;5033972;28;20478;-69
2022/06/06 01:21:36;;;;;;;2.93;2.73;;;18.00;99.90;;;;;;5034582;28;20033;-70
2022/06/06 01:24:29;;;;;;;7.18;2.90;;;18.00;99.90;;;;;;5017445;28;20403;-69
2022/06/06 01:27:06;;;;;;;4.03;3.60;;;17.90;99.90;;;;;;5034232;28;20454;-69
2022/06/06 01:29:36;;;;;;;4.40;3.42;;;18.00;99.90;;;;;;5034577;28;20433;-69
2022/06/06 01:32:11;;;;;;;4.25;3.72;;;17.90;99.90;;;;;;5034478;28;20022;-69
2022/06/06 01:34:41;;;;;;;7.45;4.63;;;18.00;99.90;;;;;;5034018;28;20026;-70
2022/06/06 01:37:41;;;;;;;5.87;5.27;;;17.90;99.90;;;;;;5034628;28;20033;-70
2022/06/06 01:40:13;;;;;;;6.53;5.38;;;18.00;99.90;;;;;;5034784;28;20021;-69
2022/06/06 01:42:57;;;;;;;9.30;6.40;;;17.90;99.90;;;;;;5035145;28;20448;-69
2022/06/06 01:45:35;;;;;;;6.78;6.13;;;17.90;99.90;;;;;;5036794;28;20028;-69
2022/06/06 01:48:08;;;;;;;7.93;6.10;;;17.90;99.90;;;;;;5016832;28;20061;-69
2022/06/06 01:50:37;;;;;;;8.32;6.38;;;17.90;99.90;;;;;;5034800;28;20481;-69
2022/06/06 01:53:06;;;;;;;7.38;6.68;;;17.90;99.90;;;;;;5034342;28;20021;-69
2022/06/06 01:55:38;;;;;;;6.53;5.75;;;17.90;99.90;;;;;;5034147;28;20021;-70
2022/06/06 01:58:08;;;;;;;5.95;5.35;;;17.90;99.90;;;;;;5016250;28;20023;-69
2022/06/06 02:00:37;;;;;;;7.40;6.18;;;17.90;99.90;;;;;;5033924;28;20022;-69
2022/06/06 02:03:03;;;;;;;7.35;6.35;;;17.90;99.90;;;;;;5016607;28;20028;-69
2022/06/06 02:05:29;;;;;;;6.82;6.07;;;17.90;99.90;;;;;;5033731;28;20021;-69
2022/06/06 02:07:55;;;;;;;8.27;6.43;;;17.90;99.90;;;;;;5032288;28;20057;-70
2022/06/06 02:10:22;;;;;;;8.43;6.50;;;17.90;99.90;;;;;;5033399;28;20026;-69
2022/06/06 02:12:48;;;;;;;6.90;6.20;;;17.90;99.90;;;;;;5033483;28;20509;-69
2022/06/06 02:15:17;;;;;;;9.25;7.15;;;17.80;99.90;;;;;;5032946;28;20482;-70
2022/06/06 02:17:43;;;;;;;7.53;6.72;;;17.80;99.90;;;;;;5033471;28;20021;-70
2022/06/06 02:20:11;;;;;;;8.05;6.97;;;17.80;99.90;;;;;;5033790;28;20097;-70
2022/06/06 02:22:37;;;;;;;10.45;6.93;;;17.80;99.90;;;;;;5033440;28;20486;-70
2022/06/06 02:25:04;;;;;;;10.52;7.30;;;17.80;99.90;;;;;;5033664;28;20033;-70
2022/06/06 02:27:30;;;;;;;8.70;6.72;;;17.80;99.90;;;;;;5033109;28;20040;-70
2022/06/06 02:29:56;;;;;;;8.63;6.97;;;17.70;99.90;;;;;;5032396;28;20033;-70
2022/06/06 02:32:21;;;;;;;8.10;6.68;;;17.80;99.90;;;;;;5033088;28;20071;-71
2022/06/06 02:34:47;;;;;;;8.18;6.55;;;17.80;99.90;;;;;;5033020;28;20032;-69
2022/06/06 02:37:13;;;;;;;8.77;6.80;;;17.70;99.90;;;;;;5033282;28;20021;-69
2022/06/06 02:39:38;;;;;;;6.10;5.50;;;17.70;99.90;;;;;;5033119;28;20025;-70
2022/06/06 02:42:04;;;;;;;7.68;5.82;;;17.70;99.90;;;;;;5032936;28;20053;-71
2022/06/06 02:44:30;;;;;;;8.23;5.13;;;17.70;99.90;;;;;;5033343;28;20025;-71
2022/06/06 02:46:55;;;;;;;6.95;5.15;;;17.70;99.90;;;;;;5032724;28;20029;-71
2022/06/06 02:49:21;;;;;;;5.90;5.22;;;17.70;99.90;;;;;;5033154;28;20033;-71
2022/06/06 02:51:47;;;;;;;5.90;4.93;;;17.70;99.90;;;;;;5031627;28;20105;-71
2022/06/06 02:54:12;;;;;;;6.80;5.30;;;17.70;99.90;;;;;;5033657;28;20022;-70
2022/06/06 02:56:38;;;;;;;5.75;5.05;;;17.60;99.90;;;;;;5033125;28;20022;-71
2022/06/06 02:59:06;;;;;;;6.60;5.22;;;17.60;99.90;;;;;;5033355;28;20041;-70
2022/06/06 03:01:31;;;;;;;8.00;5.68;;;17.60;99.90;;;;;;5033092;28;20028;-70
2022/06/06 03:03:57;;;;;;;5.78;4.93;;;17.60;99.90;;;;;;5033405;28;20056;-71
2022/06/06 03:06:28;;;;;;;9.02;5.72;;;17.50;99.90;;;;;;5032861;28;20061;-70
2022/06/06 03:09:11;;;;;;;7.38;5.53;;;17.60;99.90;;;;;;5033698;28;20026;-70
2022/06/06 03:12:02;;;;;;;6.68;5.20;;;17.50;99.90;;;;;;5033984;28;20498;-70
2022/06/06 03:15:04;;;;;;;5.90;5.40;;;17.50;99.90;;;;;;5033273;28;20034;-70
2022/06/06 03:20:47;;;;;;;7.80;6.25;;;17.50;99.90;;;;;;5033288;28;20036;-70
2022/06/06 03:23:39;;;;;;;10.88;5.95;;;17.50;99.90;;;;;;5032845;28;20029;-70
2022/06/06 03:26:20;;;;;;;10.48;7.15;;;17.40;99.90;;;;;;5032866;28;20509;-70
2022/06/06 03:29:11;;;;;;;8.95;7.38;;;17.50;99.90;;;;;;5031259;28;20028;-70
2022/06/06 03:32:05;;;;;;;14.68;8.88;;;17.50;99.90;;;;;;5033018;28;20465;-70
2022/06/06 03:34:53;;;;;;;14.23;8.80;;;17.40;99.90;;;;;;5033042;28;20021;-70
2022/06/06 03:37:21;;;;;;;10.93;8.75;;;17.40;99.90;;;;;;5032045;28;20022;-70
2022/06/06 03:40:26;;;;;;;15.20;9.30;;;17.40;99.90;;;;;;5032492;28;20029;-71
2022/06/06 03:43:08;;;;;;;15.30;10.13;;;17.40;99.90;;;;;;5035693;28;20045;-71
2022/06/06 03:45:42;;;;;;;12.77;10.60;;;17.40;99.90;;;;;;5036263;28;20082;-70
2022/06/06 03:48:50;;;;;;;17.25;11.07;;;17.30;99.90;;;;;;5072521;22;20485;-71
2022/06/06 03:51:24;;;;;;;17.35;12.18;;;17.40;99.90;;;;;;5008741;28;20041;-71
2022/06/06 03:54:15;;;;;;;21.38;13.15;;;17.40;99.90;;;;;;5058202;28;20052;-70
2022/06/06 03:57:04;;;;;;;23.67;13.27;;;17.30;99.90;;;;;;5022564;28;20026;-71
2022/06/06 03:59:30;;;;;;;22.30;13.35;;;17.30;99.90;;;;;;5020204;28;20032;-71
2022/06/06 04:02:02;;;;;;;24.10;13.23;;;17.30;99.90;;;;;;5020394;28;20121;-70
2022/06/06 04:04:30;;;;;;;26.65;15.63;;;17.30;99.90;;;;;;5038219;28;20404;-71
2022/06/06 04:06:58;;;;;;;23.52;15.25;;;17.30;99.90;;;;;;5020039;28;20175;-71
2022/06/06 04:09:24;;;;;;;25.27;16.25;;;17.30;99.90;;;;;;5037612;28;20101;-71
2022/06/06 04:11:53;;;;;;;23.83;15.35;;;17.30;99.90;;;;;;5038532;28;20389;-71
2022/06/06 04:14:36;;;;;;;26.15;16.23;;;17.30;99.90;;;;;;5020443;28;20395;-71
2022/06/06 04:17:18;;;;;;;29.25;15.85;;;17.20;99.90;;;;;;5038293;28;20022;-72
2022/06/06 04:20:12;;;;;;;29.70;17.55;;;17.20;99.90;;;;;;5039203;28;20088;-70
2022/06/06 04:23:04;;;;;;;27.40;16.33;;;17.20;99.90;;;;;;5038088;28;20167;-72
2022/06/06 04:25:48;;;;;;;;;;;17.30;99.90;;;;;;5015434;28;20214;-72
2022/06/06 04:28:38;;;;;;;36.58;16.13;;;17.20;99.90;;;;;;5039688;28;19944;-71
2022/06/06 04:31:04;;;;;;;27.30;15.55;;;17.20;99.90;;;;;;5040329;28;20026;-71
2022/06/06 04:33:38;;;;;;;31.20;16.23;;;17.30;99.90;;;;;;5039765;28;20036;-71
2022/06/06 04:36:14;;;;;;;28.55;16.02;;;17.30;99.90;;;;;;5039033;28;20017;-71
2022/06/06 04:38:50;;;;;;;31.30;16.60;;;17.20;99.90;;;;;;5038134;28;20025;-71
2022/06/06 04:41:22;;;;;;;39.50;18.25;;;17.20;99.90;;;;;;5021203;28;20032;-71
2022/06/06 04:44:23;;;;;;;36.70;18.08;;;17.30;99.90;;;;;;5038735;28;20034;-71
2022/06/06 04:46:59;;;;;;;35.63;18.77;;;17.20;99.90;;;;;;5015280;28;20052;-71
2022/06/06 04:49:30;;;;;;;39.75;20.02;;;17.20;99.90;;;;;;5021270;28;20116;-71
2022/06/06 04:51:58;;;;;;;42.47;20.23;;;17.20;99.90;;;;;;5039780;28;20032;-71
2022/06/06 04:54:25;;;;;;;42.08;21.75;;;17.20;99.90;;;;;;5043869;28;20022;-71
2022/06/06 04:56:52;;;;;;;46.65;24.00;;;17.10;99.90;;;;;;5046676;28;20022;-71
2022/06/06 04:59:20;;;;;;;45.72;23.50;;;17.10;99.90;;;;;;5047119;28;20028;-71
2022/06/06 05:01:46;;;;;;;43.80;21.60;;;17.10;99.90;;;;;;5047260;28;20147;-71
2022/06/06 05:04:12;;;;;;;50.75;25.55;;;17.00;99.90;;;;;;5048070;28;20038;-71
2022/06/06 05:07:07;;;;;;;43.20;22.48;;;16.90;99.90;;;;;;5031588;28;20025;-71
2022/06/06 05:09:55;;;;;;;48.78;22.13;;;16.90;99.90;;;;;;5030642;28;20033;-71
2022/06/06 05:12:48;;;;;;;45.08;22.90;;;16.90;99.90;;;;;;5031148;28;20105;-71
2022/06/06 05:15:54;;;;;;;47.40;23.60;;;16.90;99.90;;;;;;5051977;28;20025;-72
2022/06/06 05:18:35;;;;;;;41.72;21.63;;;16.80;99.90;;;;;;5032915;28;20055;-72
2022/06/06 05:21:38;;;;;;;52.25;23.48;;;16.80;99.90;;;;;;5050806;28;20032;-71
2022/06/06 05:24:37;;;;;;;39.17;21.02;;;16.80;99.90;;;;;;5050775;28;20052;-72
2022/06/06 05:27:29;;;;;;;38.33;20.05;;;16.80;99.90;;;;;;5049891;28;20022;-71
2022/06/06 05:30:04;;;;;;;39.30;20.77;;;16.70;99.90;;;;;;5032776;28;20033;-70
2022/06/06 05:32:49;;;;;;;34.67;18.52;;;16.70;99.90;;;;;;5047785;28;20347;-70
2022/06/06 05:35:24;;;;;;;36.67;20.05;;;16.70;99.90;;;;;;5048168;28;20116;-71
2022/06/06 05:37:53;;;;;;;36.80;18.98;;;16.70;99.90;;;;;;5051120;28;20077;-70
2022/06/06 05:40:27;;;;;;;33.83;17.60;;;16.70;99.90;;;;;;5051053;28;20049;-71
2022/06/06 05:43:31;;;;;;;33.05;18.20;;;16.70;99.90;;;;;;5030846;28;20053;-71
2022/06/06 05:46:11;;;;;;;34.10;18.38;;;16.70;99.90;;;;;;5007517;28;20033;-70
2022/06/06 05:48:42;;;;;;;28.83;16.35;;;16.70;99.90;;;;;;5041656;28;20025;-72
2022/06/06 05:51:38;;;;;;;34.78;17.95;;;16.70;99.90;;;;;;5025635;28;20033;-72
2022/06/06 05:54:32;;;;;;;26.23;15.13;;;16.80;99.90;;;;;;5027684;28;20025;-71
2022/06/06 05:57:21;;;;;;;30.02;15.75;;;16.80;99.90;;;;;;5043155;28;20060;-72
2022/06/06 06:00:04;;;;;;;29.05;15.18;;;16.90;99.90;;;;;;5040454;28;20025;-70
2022/06/06 06:02:57;;;;;;;25.50;14.82;;;16.90;99.90;;;;;;5042238;28;20454;-71
2022/06/06 06:05:47;;;;;;;27.23;14.55;;;17.00;99.90;;;;;;5022551;28;20025;-71
2022/06/06 06:08:34;;;;;;;27.33;14.88;;;17.00;99.90;;;;;;5037127;28;20025;-71
2022/06/06 06:10:59;;;;;;;20.98;12.32;;;16.90;99.90;;;;;;5036535;28;20497;-71
2022/06/06 06:13:37;;;;;;;23.05;13.32;;;17.00;99.90;;;;;;5019478;28;20048;-71
2022/06/06 06:16:04;;;;;;;24.40;13.68;;;17.00;99.90;;;;;;5037122;28;20021;-71
2022/06/06 06:18:54;;;;;;;20.38;12.40;;;17.10;99.90;;;;;;5035651;28;20037;-71
2022/06/06 06:21:24;;;;;;;21.65;12.23;;;17.10;99.90;;;;;;5037325;28;20090;-71
2022/06/06 06:24:06;;;;;;;21.13;11.13;;;17.10;99.90;;;;;;5056168;28;20025;-71
2022/06/06 06:26:34;;;;;;;18.63;11.48;;;17.10;99.90;;;;;;5056480;28;20028;-71
2022/06/06 06:29:04;;;;;;;15.48;10.60;;;17.10;99.90;;;;;;5057208;28;20029;-71
2022/06/06 06:31:36;;;;;;;16.75;10.13;;;17.10;99.90;;;;;;5057198;28;20125;-72
2022/06/06 06:34:28;;;;;;;17.27;10.23;;;17.00;99.90;;;;;;5057722;28;20025;-71
2022/06/06 06:37:28;;;;;;;15.80;9.35;;;17.10;99.90;;;;;;5058090;28;20021;-71
2022/06/06 06:40:34;;;;;;;13.73;9.40;;;17.00;99.90;;;;;;5039280;28;20033;-71
2022/06/06 06:43:10;;;;;;;13.02;8.75;;;17.00;99.90;;;;;;5057508;28;20028;-71
2022/06/06 06:45:56;;;;;;;14.43;8.77;;;17.00;99.90;;;;;;5059555;28;20021;-72
2022/06/06 06:48:28;;;;;;;13.80;8.98;;;17.10;99.90;;;;;;5040602;28;20498;-72
2022/06/06 06:51:04;;;;;;;14.90;8.65;;;17.10;99.90;;;;;;5041395;28;20482;-71
2022/06/06 06:53:37;;;;;;;16.05;8.52;;;17.10;99.90;;;;;;5060323;28;20078;-72
2022/06/06 06:56:09;;;;;;;13.18;8.65;;;17.00;99.90;;;;;;5058228;28;20474;-72
2022/06/06 06:58:49;;;;;;;12.07;8.68;;;17.10;99.90;;;;;;5059328;28;20071;-72
2022/06/06 07:01:38;;;;;;;11.63;8.43;;;17.10;99.90;;;;;;5062596;28;20055;-72
2022/06/06 07:10:56;;;;;;;11.65;7.50;;;17.50;99.90;;;;;;4956719;29;20036;-72
2022/06/06 07:13:34;;;;;;;11.38;7.55;;;17.70;99.90;;;;;;4956476;29;20228;-70
2022/06/06 07:16:13;;;;;;;11.02;7.15;;;17.90;99.90;;;;;;5020788;28;20246;-72
2022/06/06 07:18:41;;;;;;;11.60;8.27;;;18.00;99.90;;;;;;5062511;28;20013;-72
2022/06/06 07:21:08;;;;;;;13.77;7.78;;;18.10;99.90;;;;;;5041786;28;20447;-71
2022/06/06 07:23:38;;;;;;;13.88;9.07;;;18.20;99.90;;;;;;5062960;28;20021;-72
2022/06/06 07:26:04;;;;;;;13.77;8.45;;;18.40;99.90;;;;;;5043053;28;20025;-72
2022/06/06 07:28:30;;;;;;;15.85;9.13;;;18.40;99.90;;;;;;5061074;28;20474;-71
2022/06/06 07:31:11;;;;;;;13.23;8.63;;;18.40;99.90;;;;;;5059803;28;20029;-72
2022/06/06 07:34:11;;;;;;;16.80;10.32;;;18.30;99.90;;;;;;5058347;28;20036;-73
2022/06/06 07:37:10;;;;;;;12.27;8.38;;;18.30;99.90;;;;;;5074031;28;20393;-73
2022/06/06 07:40:06;;;;;;;13.25;9.43;;;18.20;99.90;;;;;;5053743;28;20017;-72
2022/06/06 07:42:44;;;;;;;15.98;9.57;;;18.20;99.90;;;;;;5058809;28;20033;-72
2022/06/06 07:45:19;;;;;;;17.05;9.75;;;18.20;99.90;;;;;;5040897;28;20029;-73
2022/06/06 07:48:02;;;;;;;20.10;10.30;;;18.20;99.90;;;;;;5058522;28;20029;-71
2022/06/06 07:51:03;;;;;;;16.40;9.95;;;18.30;99.90;;;;;;5040409;28;20048;-71
2022/06/06 07:53:42;;;;;;;16.48;10.18;;;18.30;99.90;;;;;;5017376;28;20072;-72
2022/06/06 07:57:08;;;;;;;17.50;9.70;;;18.40;99.90;;;;;;5041294;28;20029;-72
2022/06/06 07:59:33;;;;;;;17.90;10.68;;;18.60;99.90;;;;;;4980893;28;20029;-72
2022/06/06 08:02:17;;;;;;;14.57;9.63;;;18.70;99.90;;;;;;4997096;28;20018;-72
2022/06/06 08:04:49;;;;;;;14.50;9.23;;;18.80;99.90;;;;;;5034009;28;20041;-72
2022/06/06 08:07:39;;;;;;;16.65;10.32;;;18.80;99.90;;;;;;5040707;28;20021;-72
2022/06/06 08:10:33;;;;;;;15.82;9.52;;;18.70;99.90;;;;;;5058873;28;20033;-72
2022/06/06 08:13:36;;;;;;;22.42;10.82;;;18.70;99.90;;;;;;5059129;28;20049;-71
2022/06/06 08:16:38;;;;;;;18.05;10.57;;;18.60;99.90;;;;;;5056420;28;20382;-72
2022/06/06 08:19:04;;;;;;;17.52;11.07;;;18.50;99.90;;;;;;5059863;28;20104;-72
2022/06/06 08:21:43;;;;;;;17.42;10.25;;;18.50;99.90;;;;;;5059498;28;20052;-73
2022/06/06 08:24:17;;;;;;;17.80;10.85;;;18.50;99.90;;;;;;5029121;28;20049;-72
2022/06/06 08:26:45;;;;;;;20.30;10.75;;;18.50;99.90;;;;;;5041109;28;20026;-72
2022/06/06 08:29:11;;;;;;;18.45;11.50;;;18.50;99.90;;;;;;5033580;28;20029;-73
2022/06/06 08:31:38;;;;;;;22.35;11.32;;;18.40;99.90;;;;;;5051426;28;20061;-71
2022/06/06 08:34:04;;;;;;;21.38;11.18;;;18.40;99.90;;;;;;5038630;28;20051;-73
2022/06/06 08:36:44;;;;;;;21.25;11.77;;;18.40;99.90;;;;;;5043533;28;20085;-72
2022/06/06 08:39:10;;;;;;;22.10;12.03;;;18.30;99.90;;;;;;5042154;28;20037;-75
2022/06/06 08:42:06;;;;;;;20.70;11.68;;;18.30;99.90;;;;;;5041317;28;20463;-73
2022/06/06 08:44:45;;;;;;;21.08;11.85;;;18.10;99.90;;;;;;5040132;28;20032;-72
2022/06/06 08:47:19;;;;;;;18.52;11.73;;;18.10;99.90;;;;;;5038261;28;20388;-73
2022/06/06 08:52:51;;;;;;;21.13;11.15;;;18.40;99.90;;;;;;5040130;28;20041;-72
2022/06/06 08:55:48;;;;;;;20.77;10.90;;;18.80;99.90;;;;;;5053035;28;20471;-72
2022/06/06 08:58:53;;;;;;;16.73;10.40;;;19.10;99.90;;;;;;5056081;28;20079;-73
2022/06/06 09:01:47;;;;;;;19.52;11.05;;;19.50;99.90;;;;;;5057410;28;20021;-72
2022/06/06 09:04:22;;;;;;;18.58;11.63;;;19.90;99.90;;;;;;5054053;28;20028;-73
2022/06/06 09:07:08;;;;;;;18.83;10.43;;;20.10;99.90;;;;;;5049976;28;20092;-72
2022/06/06 09:10:15;;;;;;;16.42;10.15;;;20.30;99.90;;;;;;5054353;28;20043;-71
2022/06/06 09:13:03;;;;;;;14.82;9.18;;;20.50;99.90;;;;;;5054248;28;20025;-72
2022/06/06 09:15:50;;;;;;;15.48;9.77;;;20.80;99.90;;;;;;5052829;28;20045;-71
2022/06/06 09:18:49;;;;;;;12.70;8.88;;;21.00;99.90;;;;;;5051488;28;20060;-72
2022/06/06 09:21:27;;;;;;;16.02;10.32;;;21.10;99.90;;;;;;5055247;28;20025;-72
2022/06/06 09:24:39;;;;;;;14.15;10.10;;;21.20;99.90;;;;;;5055396;28;20017;-72
2022/06/06 09:27:08;;;;;;;14.30;9.32;;;21.20;99.90;;;;;;5048514;28;20029;-71
2022/06/06 09:29:50;;;;;;;16.67;9.55;;;21.10;99.90;;;;;;5054384;28;20028;-72
2022/06/06 09:32:31;;;;;;;15.43;9.80;;;21.00;99.90;;;;;;5051488;28;20025;-71
2022/06/06 09:35:36;;;;;;;14.63;10.03;;;21.00;99.90;;;;;;5051524;28;20078;-71
2022/06/06 09:38:26;;;;;;;16.52;9.68;;;21.00;99.90;;;;;;5012337;28;20329;-72
2022/06/06 09:41:28;;;;;;;14.15;8.68;;;20.70;99.90;;;;;;5041522;28;20477;-72
2022/06/06 09:44:22;;;;;;;12.77;8.63;;;20.60;99.90;;;;;;5047031;28;20382;-72
2022/06/06 09:46:53;;;;;;;14.77;9.02;;;20.80;99.90;;;;;;5056500;28;20036;-72
2022/06/06 09:49:41;;;;;;;;;;;21.10;99.90;;;;;;5067330;28;20070;-72
2022/06/06 09:52:15;;;;;;;14.40;8.75;;;21.10;99.90;;;;;;5056326;28;19911;-72
2022/06/06 10:01:37;;;;;;;13.88;7.82;;;21.20;99.90;;;;;;5059443;28;20459;-72
2022/06/06 10:04:54;;;;;;;15.30;7.72;;;21.10;99.90;;;;;;5028244;28;20044;-72
2022/06/06 10:07:38;;;;;;;8.80;6.18;;;21.10;99.90;;;;;;5021670;28;20048;-73
2022/06/06 10:10:37;;;;;;;8.65;5.78;;;21.20;99.90;;;;;;5047337;28;20029;-72
2022/06/06 10:13:31;;;;;;;7.25;4.32;;;21.30;99.90;;;;;;5056216;28;20032;-72
2022/06/06 10:16:23;;;;;;;5.40;4.53;;;21.40;99.90;;;;;;5034929;28;20032;-72
2022/06/06 10:19:06;;;;;;;5.25;4.57;;;21.40;99.90;;;;;;4999469;28;20394;-72
2022/06/06 10:22:08;;;;;;;5.97;4.47;;;21.60;99.90;;;;;;5036726;28;20022;-72
2022/06/06 10:24:56;;;;;;;6.65;4.38;;;21.80;99.90;;;;;;5056202;28;20025;-72
2022/06/06 10:27:44;;;;;;;9.82;4.53;;;21.90;99.90;;;;;;5049519;28;20049;-72
2022/06/06 10:30:23;;;;;;;5.63;4.72;;;21.80;99.90;;;;;;5045037;28;20034;-72
2022/06/06 10:33:07;;;;;;;6.32;4.75;;;21.80;99.90;;;;;;5018352;28;20029;-72
2022/06/06 10:35:39;;;;;;;6.43;5.65;;;21.70;99.90;;;;;;5047834;28;20573;-72
2022/06/06 10:38:44;;;;;;;9.02;5.63;;;21.60;99.90;;;;;;5036185;28;20029;-71
2022/06/06 10:41:52;;;;;;;8.48;5.63;;;21.50;99.90;;;;;;4937759;29;20062;-72
2022/06/06 10:44:24;;;;;;;7.38;5.40;;;21.40;99.90;;;;;;4972070;22;20066;-73
2022/06/06 10:47:26;;;;;;;11.77;5.78;;;21.20;99.90;;;;;;5014461;28;20034;-73
2022/06/06 10:50:15;;;;;;;10.40;6.03;;;21.20;99.90;;;;;;5032811;28;20040;-72
2022/06/06 10:53:30;;;;;;;8.77;6.75;;;21.10;99.90;;;;;;5033984;28;20061;-72
2022/06/06 10:56:18;;;;;;;7.50;5.43;;;21.10;99.90;;;;;;4988419;28;20044;-72
2022/06/06 10:59:03;;;;;;;11.05;4.82;;;21.20;99.90;;;;;;5017788;28;20474;-71
2022/06/06 11:01:32;;;;;;;5.78;4.63;;;21.20;99.90;;;;;;5034031;28;20022;-73
2022/06/06 11:04:35;;;;;;;7.97;5.03;;;21.20;99.90;;;;;;5025106;28;20026;-72
2022/06/06 11:07:35;;;;;;;9.43;5.20;;;21.20;99.90;;;;;;5014673;28;20029;-72
2022/06/06 11:10:00;;;;;;;5.93;4.40;;;21.20;99.90;;;;;;5014207;28;20026;-72
2022/06/06 11:13:00;;;;;;;5.82;4.00;;;21.20;99.90;;;;;;5014593;28;20030;-72
2022/06/06 11:15:37;;;;;;;6.03;4.15;;;21.20;99.90;;;;;;5014077;28;20041;-72
2022/06/06 11:18:17;;;;;;;7.85;4.20;;;21.20;99.90;;;;;;5013674;28;20114;-72
2022/06/06 11:21:22;;;;;;;4.25;3.30;;;21.20;99.90;;;;;;5014479;28;20026;-72
2022/06/06 11:24:10;;;;;;;3.60;3.30;;;21.10;99.90;;;;;;5025359;28;20268;-73
2022/06/06 11:27:08;;;;;;;7.95;3.42;;;21.00;99.90;;;;;;5033085;28;20030;-73
2022/06/06 11:30:01;;;;;;;5.72;3.63;;;21.00;99.90;;;;;;5028680;28;20026;-74
2022/06/06 11:32:52;;;;;;;4.28;3.47;;;21.00;99.90;;;;;;5029692;28;20052;-74
2022/06/06 11:35:35;;;;;;;6.85;3.75;;;21.00;99.90;;;;;;5031621;28;20020;-75
2022/06/06 11:38:13;;;;;;;6.45;4.43;;;21.00;99.90;;;;;;5032373;28;20105;-73
2022/06/06 11:40:45;;;;;;;8.40;4.47;;;20.90;99.90;;;;;;5012964;28;20025;-72
2022/06/06 11:43:21;;;;;;;4.43;4.03;;;20.90;99.90;;;;;;4995863;28;20044;-73
2022/06/06 11:46:11;;;;;;;4.63;3.67;;;21.00;99.90;;;;;;5013964;28;20041;-72
2022/06/06 11:48:52;;;;;;;5.28;3.20;;;20.90;99.90;;;;;;4995724;28;20166;-74
2022/06/06 11:51:43;;;;;;;6.30;3.10;;;20.80;99.90;;;;;;5013737;28;20022;-73
2022/06/06 11:54:34;;;;;;;4.18;2.95;;;20.90;99.90;;;;;;5011930;28;20071;-73
2022/06/06 11:57:06;;;;;;;3.88;3.00;;;21.10;99.90;;;;;;5031560;28;20328;-73
2022/06/06 11:59:43;;;;;;;8.10;3.05;;;21.00;99.90;;;;;;5032849;28;20021;-73
2022/06/06 12:02:46;;;;;;;5.28;2.58;;;21.10;99.90;;;;;;5033173;28;20021;-72
2022/06/06 12:05:33;;;;;;;5.20;2.97;;;21.10;99.90;;;;;;5036158;28;20080;-74
2022/06/06 12:08:35;;;;;;;4.60;2.92;;;21.20;99.90;;;;;;5030639;28;20036;-73
2022/06/06 12:11:38;;;;;;;10.80;4.72;;;21.20;99.90;;;;;;5035605;28;20487;-74
2022/06/06 12:14:22;;;;;;;11.60;4.20;;;21.30;99.90;;;;;;5029750;28;20041;-75
2022/06/06 12:17:20;;;;;;;4.43;2.97;;;21.50;99.90;;;;;;5021643;28;20041;-74
2022/06/06 12:20:00;;;;;;;3.55;2.67;;;21.50;99.90;;;;;;5033926;28;20022;-74
2022/06/06 12:23:07;;;;;;;4.80;2.80;;;21.70;99.90;;;;;;5037140;28;20538;-72
2022/06/06 12:26:10;;;;;;;6.35;2.47;;;21.90;99.90;;;;;;5014507;28;20097;-72
2022/06/06 12:29:13;;;;;;;2.42;1.90;;;21.80;99.90;;;;;;5032315;28;20029;-74
2022/06/06 12:31:58;;;;;;;1.90;1.67;;;21.70;99.90;;;;;;4991578;28;20475;-72
2022/06/06 12:34:36;;;;;;;2.70;1.60;;;21.70;99.90;;;;;;5034983;28;20037;-74
2022/06/06 12:37:11;;;;;;;2.25;1.50;;;21.70;99.90;;;;;;5036590;28;20039;-72
2022/06/06 12:39:54;;;;;;;1.83;1.63;;;21.60;99.90;;;;;;5036231;28;20398;-72
2022/06/06 12:42:31;;;;;;;2.80;1.60;;;21.70;99.90;;;;;;5034390;28;20022;-73
2022/06/06 12:45:00;;;;;;;1.90;1.48;;;21.70;99.90;;;;;;5023300;28;20495;-73
2022/06/06 12:47:30;;;;;;;4.28;1.60;;;21.80;99.90;;;;;;5014572;28;20025;-73
2022/06/06 12:50:20;;;;;;;2.63;2.22;;;22.10;99.90;;;;;;5037478;28;20026;-73
2022/06/06 12:53:05;;;;;;;3.10;1.60;;;22.30;99.90;;;;;;5036794;28;20126;-73
2022/06/06 12:58:44;;;;;;;2.92;1.40;;;22.50;99.90;;;;;;5011717;28;20117;-72
2022/06/06 13:01:40;;;;;;;8.38;1.70;;;22.60;99.90;;;;;;5027588;28;20018;-73
2022/06/06 13:04:30;;;;;;;2.47;1.35;;;22.70;99.90;;;;;;5024991;28;20059;-72
2022/06/06 13:07:20;;;;;;;5.00;1.33;;;22.60;99.90;;;;;;4998950;28;20041;-72
2022/06/06 13:10:06;;;;;;;2.15;1.63;;;22.70;99.90;;;;;;5016691;28;20534;-74
2022/06/06 13:12:47;;;;;;;2.80;1.30;;;22.70;99.90;;;;;;5032616;28;20539;-73
2022/06/06 13:15:27;;;;;;;1.80;1.00;;;22.70;99.90;;;;;;5034044;28;20021;-73
2022/06/06 13:18:15;;;;;;;1.60;1.20;;;22.80;99.90;;;;;;5010076;28;20029;-74
2022/06/06 13:20:55;;;;;;;3.85;1.38;;;22.80;99.90;;;;;;5025956;28;20025;-74
2022/06/06 13:24:18;;;;;;;1.05;0.95;;;22.80;99.70;;;;;;5016840;28;20033;-72
2022/06/06 13:26:50;;;;;;;0.82;0.82;;;22.70;99.20;;;;;;4961008;28;20090;-73
2022/06/06 13:29:32;;;;;;;2.05;1.30;;;22.80;98.10;;;;;;4973823;28;20030;-73
2022/06/06 13:32:11;;;;;;;0.75;0.70;;;22.80;98.20;;;;;;5008704;28;20120;-73
2022/06/06 13:35:02;;;;;;;0.90;0.90;;;22.90;97.60;;;;;;5030660;28;20030;-73
2022/06/06 13:37:34;;;;;;;2.50;0.88;;;22.90;97.50;;;;;;5018811;28;20051;-73
2022/06/06 13:40:32;;;;;;;1.63;0.82;;;22.90;96.30;;;;;;5036654;28;20021;-73
2022/06/06 13:43:35;;;;;;;1.17;0.73;;;22.90;96.20;;;;;;5032250;28;20049;-73
2022/06/06 13:46:14;;;;;;;2.22;1.30;;;22.80;96.40;;;;;;5027230;28;20037;-73
2022/06/06 13:48:51;;;;;;;0.88;0.88;;;22.80;97.10;;;;;;5013729;28;20064;-71
2022/06/06 13:51:20;;;;;;;3.15;0.82;;;22.80;97.10;;;;;;5000482;28;20026;-72
2022/06/06 13:54:03;;;;;;;1.48;1.00;;;22.70;96.70;;;;;;5021762;28;20113;-72
2022/06/06 13:56:47;;;;;;;2.00;0.88;;;22.60;97.20;;;;;;5036168;28;20014;-71
2022/06/06 13:59:49;;;;;;;2.85;1.00;;;22.60;97.80;;;;;;5035747;28;20373;-72
2022/06/06 14:02:33;;;;;;;1.80;0.90;;;22.60;97.60;;;;;;5017217;28;20052;-73
2022/06/06 14:05:13;;;;;;;2.13;0.90;;;22.50;97.40;;;;;;5025935;28;20068;-72
2022/06/06 14:08:03;;;;;;;3.67;0.93;;;22.50;97.40;;;;;;5029635;28;20108;-73
2022/06/06 14:10:58;;;;;;;2.03;1.15;;;22.50;98.10;;;;;;5031669;28;20029;-73
2022/06/06 14:13:52;;;;;;;2.15;1.25;;;22.50;98.00;;;;;;5017510;28;20038;-73
2022/06/06 14:16:22;;;;;;;1.23;0.90;;;22.60;98.10;;;;;;5034449;28;20071;-74